Time;durP1;ratioP1;P1;durP2;ratioP2;P2;SDS_P1;SDS_P2;PMS_P1;PMS_P2;Temp;Humidity;BMP_temperature;BMP_pressure;BME280_temperature;BME280_humidity;BME280_pressure;Samples;Min_cycle;Max_cycle;Signal;HPM_P1;HPM_P2
2022/08/24 00:00:58;;;;;;;3.50;3.17;;;;;;;17.24;61.96;101155.47;5067680;28;20029;-28
2022/08/24 00:03:24;;;;;;;3.97;3.33;;;;;;;17.24;61.64;101158.16;5065455;28;20040;-28
2022/08/24 00:05:49;;;;;;;2.90;2.70;;;;;;;17.23;61.61;101156.41;5071817;28;20438;-28
2022/08/24 00:08:15;;;;;;;3.53;3.22;;;;;;;17.21;61.87;101157.38;5061239;28;20438;-28
2022/08/24 00:10:41;;;;;;;4.03;3.63;;;;;;;17.17;61.53;101159.25;5066713;28;20055;-28
2022/08/24 00:13:06;;;;;;;3.30;3.05;;;;;;;17.16;61.30;101160.19;5066855;28;20028;-28
2022/08/24 00:15:32;;;;;;;3.10;2.90;;;;;;;17.12;61.13;101158.50;5064434;28;20025;-27
2022/08/24 00:17:58;;;;;;;3.45;3.00;;;;;;;17.07;61.47;101160.44;5063202;28;20381;-27
2022/08/24 00:20:23;;;;;;;5.45;3.00;;;;;;;17.00;61.35;101165.91;5061119;28;20039;-28
2022/08/24 00:22:48;;;;;;;2.97;2.78;;;;;;;17.03;61.49;101159.63;5062258;28;20033;-28
2022/08/24 00:25:14;;;;;;;4.28;2.92;;;;;;;17.00;61.34;101160.59;5062590;28;20129;-28
2022/08/24 00:27:40;;;;;;;3.75;2.90;;;;;;;16.87;61.61;101157.38;5068877;28;20032;-28
2022/08/24 00:30:09;;;;;;;3.13;2.83;;;;;;;16.89;61.71;101168.00;5069302;28;20025;-28
2022/08/24 00:32:36;;;;;;;3.25;2.95;;;;;;;16.82;61.80;101161.09;5066697;28;20056;-27
2022/08/24 00:35:04;;;;;;;3.92;3.33;;;;;;;16.82;61.73;101161.97;5068182;28;20519;-28
2022/08/24 00:37:29;;;;;;;4.72;3.17;;;;;;;16.75;61.89;101158.63;5070149;28;20111;-28
2022/08/24 00:39:55;;;;;;;3.17;2.90;;;;;;;16.72;62.10;101163.13;5063137;28;20025;-27
2022/08/24 00:42:21;;;;;;;3.25;3.03;;;;;;;16.73;61.97;101155.09;5065953;28;20024;-27
2022/08/24 00:44:46;;;;;;;3.50;3.20;;;;;;;16.68;62.13;101151.72;5071372;28;20502;-27
2022/08/24 00:47:23;;;;;;;3.28;2.97;;;;;;;16.64;62.25;101158.88;5068268;28;20491;-27
2022/08/24 00:49:59;;;;;;;2.90;2.70;;;;;;;16.63;62.39;101165.13;5064699;28;20115;-28
2022/08/24 00:52:28;;;;;;;2.92;2.72;;;;;;;16.61;62.42;101158.13;5063956;28;20380;-27
2022/08/24 00:55:00;;;;;;;3.33;3.03;;;;;;;16.58;62.46;101164.41;5065792;28;20076;-27
2022/08/24 00:57:29;;;;;;;3.08;2.83;;;;;;;16.59;62.73;101162.59;5062488;28;20028;-27
2022/08/24 01:00:19;;;;;;;3.30;3.00;;;;;;;16.55;62.47;101152.00;5064822;28;20449;-28
2022/08/24 01:02:48;;;;;;;3.85;3.42;;;;;;;16.55;62.72;101141.38;5052739;28;20087;-27
2022/08/24 01:05:16;;;;;;;4.00;2.95;;;;;;;16.52;62.58;101149.47;5064572;28;20387;-28
2022/08/24 01:07:42;;;;;;;4.03;3.35;;;;;;;16.47;62.65;101156.69;5065362;28;20024;-28
2022/08/24 01:10:12;;;;;;;3.08;2.88;;;;;;;16.47;62.82;101148.69;5065059;28;20391;-27
2022/08/24 01:12:41;;;;;;;3.80;3.42;;;;;;;16.45;62.70;101153.19;5065827;28;20024;-28
2022/08/24 01:15:08;;;;;;;2.83;2.63;;;;;;;16.39;62.80;101148.91;5068676;28;20202;-26
2022/08/24 01:20:19;;;;;;;3.53;3.22;;;;;;;16.35;62.83;101149.91;5064632;28;21153;-27
2022/08/24 01:23:23;;;;;;;4.70;3.13;;;;;;;16.34;63.08;101149.94;5064141;28;20025;-26
2022/08/24 01:25:49;;;;;;;3.63;3.25;;;;;;;16.31;62.88;101150.00;5049325;28;20043;-28
2022/08/24 01:28:17;;;;;;;4.57;3.58;;;;;;;16.29;62.80;101150.03;5060088;28;20021;-28
2022/08/24 01:30:43;;;;;;;3.38;2.85;;;;;;;16.26;62.88;101153.66;5066854;28;20028;-28
2022/08/24 01:33:10;;;;;;;3.95;3.55;;;;;;;16.24;62.92;101150.16;5068030;28;20024;-28
2022/08/24 01:35:37;;;;;;;3.42;3.17;;;;;;;16.22;62.96;101152.00;5065629;28;20060;-28
2022/08/24 01:38:06;;;;;;;4.20;3.50;;;;;;;16.20;62.93;101148.50;5066148;28;20107;-27
2022/08/24 01:40:37;;;;;;;3.50;3.10;;;;;;;16.16;62.98;101146.81;5066902;28;20028;-28
2022/08/24 01:43:04;;;;;;;2.92;2.72;;;;;;;16.16;63.17;101146.81;5062834;28;20032;-27
2022/08/24 01:45:30;;;;;;;3.83;3.10;;;;;;;16.12;63.10;101145.16;5066891;28;20036;-28
2022/08/24 01:47:57;;;;;;;3.85;3.42;;;;;;;16.12;62.96;101139.81;5067098;28;20293;-27
2022/08/24 01:50:22;;;;;;;3.63;3.33;;;;;;;16.08;63.12;101146.13;5068618;28;20553;-27
2022/08/24 01:52:48;;;;;;;4.05;3.30;;;;;;;16.06;63.29;101139.97;5064075;28;20032;-26
2022/08/24 01:55:15;;;;;;;3.20;2.97;;;;;;;16.02;63.32;101134.75;5061364;28;20078;-28
2022/08/24 01:57:41;;;;;;;5.55;3.47;;;;;;;15.99;63.13;101145.47;5066011;28;20081;-27
2022/08/24 02:00:10;;;;;;;3.53;3.20;;;;;;;15.97;63.39;101147.25;5059354;28;20028;-27
2022/08/24 02:02:36;;;;;;;3.22;2.90;;;;;;;15.97;63.41;101149.94;5065387;28;20028;-27
2022/08/24 02:05:01;;;;;;;3.58;3.28;;;;;;;15.95;63.21;101143.78;5066740;28;20030;-26
2022/08/24 02:07:28;;;;;;;3.45;3.15;;;;;;;15.90;63.35;101148.28;5062329;28;20044;-28
2022/08/24 02:09:53;;;;;;;4.85;3.55;;;;;;;15.91;63.53;101158.03;5069312;28;20020;-28
2022/08/24 02:12:20;;;;;;;4.47;3.53;;;;;;;15.92;63.46;101157.13;5063659;28;20025;-27
2022/08/24 02:14:46;;;;;;;3.22;2.92;;;;;;;15.91;63.26;101153.56;5066388;28;20056;-27
2022/08/24 02:17:12;;;;;;;3.38;3.10;;;;;;;15.88;63.23;101152.78;5058742;28;20169;-28
2022/08/24 02:19:37;;;;;;;3.97;3.42;;;;;;;15.86;63.49;101159.91;5065175;28;20506;-27
2022/08/24 02:22:04;;;;;;;4.50;3.60;;;;;;;15.85;63.42;101152.84;5061958;28;20028;-28
2022/08/24 02:24:30;;;;;;;4.20;3.90;;;;;;;15.80;63.57;101160.06;5064461;28;20059;-27
2022/08/24 02:26:56;;;;;;;5.60;3.95;;;;;;;15.78;63.63;101160.97;5068027;28;20469;-28
2022/08/24 02:29:21;;;;;;;6.20;3.92;;;;;;;15.75;63.54;101163.72;5061943;28;20431;-28
2022/08/24 02:31:47;;;;;;;4.43;3.53;;;;;;;15.75;63.66;101163.72;5065755;28;20025;-28
2022/08/24 02:34:12;;;;;;;4.22;3.85;;;;;;;15.72;63.59;101169.09;5064103;28;20021;-27
2022/08/24 02:36:38;;;;;;;3.60;3.28;;;;;;;15.69;63.59;101168.28;5057569;28;20399;-27
2022/08/24 02:39:05;;;;;;;3.53;3.22;;;;;;;15.70;63.66;101175.38;5062965;28;20062;-28
2022/08/24 02:41:31;;;;;;;3.67;3.38;;;;;;;15.68;63.83;101175.41;5064563;28;20029;-28
2022/08/24 02:43:56;;;;;;;4.68;3.30;;;;;;;15.64;63.57;101169.25;5062860;28;20353;-28
2022/08/24 02:46:25;;;;;;;3.85;3.55;;;;;;;15.60;63.46;101170.25;5065442;28;20119;-28
2022/08/24 02:48:50;;;;;;;3.90;3.50;;;;;;;15.57;63.59;101170.31;5063830;28;21046;-28
2022/08/24 02:51:28;;;;;;;4.18;3.78;;;;;;;15.58;63.62;101177.41;5063512;28;20020;-27
2022/08/24 02:53:53;;;;;;;3.58;3.28;;;;;;;15.56;63.69;101178.31;5067679;28;20485;-28
2022/08/24 02:56:22;;;;;;;4.50;3.30;;;;;;;15.49;63.85;101178.47;5044456;28;20021;-28
2022/08/24 02:58:47;;;;;;;4.82;3.60;;;;;;;15.49;63.84;101177.56;5060862;28;20169;-28
2022/08/24 03:01:13;;;;;;;4.18;3.67;;;;;;;15.47;63.95;101177.59;5058152;28;20024;-26
2022/08/24 03:03:39;;;;;;;4.35;3.55;;;;;;;15.45;63.88;101184.75;5067026;28;20484;-28
2022/08/24 03:06:06;;;;;;;3.38;3.08;;;;;;;15.41;63.58;101182.19;5063545;28;20044;-28
2022/08/24 03:08:32;;;;;;;3.65;3.33;;;;;;;15.39;64.12;101176.91;5062651;28;20467;-28
2022/08/24 03:10:59;;;;;;;8.32;3.70;;;;;;;15.40;63.90;101165.34;5063629;28;20067;-27
2022/08/24 03:13:27;;;;;;;3.85;3.55;;;;;;;15.36;64.06;101174.31;5063022;28;20044;-27
2022/08/24 03:15:54;;;;;;;3.95;3.63;;;;;;;15.35;64.11;101175.22;5062303;28;20017;-28
2022/08/24 03:18:20;;;;;;;5.43;3.33;;;;;;;15.33;63.90;101177.91;5058570;28;20024;-28
2022/08/24 03:20:45;;;;;;;3.50;3.20;;;;;;;15.29;64.01;101170.91;5066841;28;20403;-27
2022/08/24 03:23:10;;;;;;;5.20;3.30;;;;;;;15.31;64.03;101169.06;5063009;28;20032;-28
2022/08/24 03:25:36;;;;;;;3.88;3.58;;;;;;;15.29;64.13;101164.72;5060132;28;20459;-28
2022/08/24 03:28:01;;;;;;;4.22;3.92;;;;;;;15.31;63.98;101160.25;5065613;28;20555;-27
2022/08/24 03:30:27;;;;;;;5.20;3.38;;;;;;;15.25;63.98;101163.91;5060918;28;20078;-27
2022/08/24 03:32:52;;;;;;;4.38;3.60;;;;;;;15.22;64.06;101164.84;5058983;28;20099;-27
2022/08/24 03:35:20;;;;;;;3.63;3.33;;;;;;;15.19;64.03;101166.69;5065069;28;20354;-28
2022/08/24 03:37:46;;;;;;;4.63;4.13;;;;;;;15.18;64.13;101176.47;5059653;28;20024;-28
2022/08/24 03:40:12;;;;;;;4.05;3.67;;;;;;;15.13;64.12;101173.00;5064654;28;20025;-27
2022/08/24 03:42:37;;;;;;;4.63;3.50;;;;;;;15.10;64.16;101175.72;5066204;28;20035;-28
2022/08/24 03:45:03;;;;;;;4.55;3.80;;;;;;;15.13;63.95;101179.19;5060490;28;20048;-28
2022/08/24 03:47:29;;;;;;;3.92;3.30;;;;;;;15.10;64.12;101187.22;5056715;28;20039;-28
2022/08/24 03:49:55;;;;;;;4.50;4.10;;;;;;;15.04;64.16;101181.16;5063163;28;20601;-28
2022/08/24 03:52:20;;;;;;;3.72;3.22;;;;;;;15.01;64.37;101190.94;5059582;28;20031;-28
2022/08/24 03:54:46;;;;;;;3.63;3.33;;;;;;;15.01;64.27;101193.59;5065976;28;20078;-26
2022/08/24 03:57:12;;;;;;;4.28;3.50;;;;;;;15.01;64.33;101200.69;5060910;28;20077;-27
2022/08/24 03:59:37;;;;;;;6.00;3.92;;;;;;;14.98;64.31;101200.75;5060297;28;20071;-28
2022/08/24 04:02:03;;;;;;;4.65;4.05;;;;;;;14.95;64.37;101201.69;5063758;28;20111;-28
2022/08/24 04:04:29;;;;;;;4.90;4.50;;;;;;;14.96;64.31;101200.78;5065640;28;20025;-28
2022/08/24 04:06:54;;;;;;;5.25;3.90;;;;;;;14.94;64.29;101207.03;5061904;28;20048;-28
2022/08/24 04:09:19;;;;;;;4.90;3.63;;;;;;;14.92;64.47;101204.41;5058486;28;20076;-28
2022/08/24 04:11:45;;;;;;;4.13;3.72;;;;;;;14.90;64.44;101208.84;5062402;28;20028;-27
2022/08/24 04:14:11;;;;;;;4.35;3.67;;;;;;;14.90;64.32;101211.50;5066443;28;20468;-27
2022/08/24 04:16:37;;;;;;;4.25;3.50;;;;;;;14.88;64.38;101214.19;5063740;28;21140;-28
2022/08/24 04:19:03;;;;;;;5.93;4.15;;;;;;;14.88;64.39;101210.69;5069417;28;20029;-28
2022/08/24 04:21:31;;;;;;;6.85;4.05;;;;;;;14.85;64.52;101213.38;5061128;28;20032;-28
2022/08/24 04:23:57;;;;;;;4.10;3.75;;;;;;;14.86;64.41;101216.00;5064240;28;20067;-27
2022/08/24 04:26:24;;;;;;;5.25;4.07;;;;;;;14.83;64.63;101210.75;5057809;28;20086;-28
2022/08/24 04:28:50;;;;;;;4.28;3.88;;;;;;;14.81;64.47;101206.38;5061522;28;20020;-28
2022/08/24 04:31:17;;;;;;;4.35;3.90;;;;;;;14.83;64.60;101216.06;5056977;28;20021;-27
2022/08/24 04:33:42;;;;;;;3.83;3.53;;;;;;;14.80;64.51;101215.25;5063047;28;20560;-28
2022/08/24 04:36:09;;;;;;;4.03;3.63;;;;;;;14.78;64.81;101217.94;5065778;28;20119;-28
2022/08/24 04:38:35;;;;;;;4.45;3.80;;;;;;;14.75;64.85;101224.13;5063996;28;20032;-28
2022/08/24 04:41:07;;;;;;;4.40;4.00;;;;;;;14.74;64.78;101222.38;5067524;28;20495;-28
2022/08/24 04:43:33;;;;;;;5.90;4.55;;;;;;;14.72;64.64;101224.19;5063096;28;20492;-28
2022/08/24 04:45:59;;;;;;;4.88;4.38;;;;;;;14.72;64.59;101224.19;5061171;28;20051;-28
2022/08/24 04:48:24;;;;;;;5.80;3.95;;;;;;;14.70;64.61;101231.31;5072353;28;20056;-28
2022/08/24 04:50:50;;;;;;;5.50;4.57;;;;;;;14.70;64.71;101233.06;5066985;28;20119;-28
2022/08/24 04:53:15;;;;;;;4.57;4.18;;;;;;;14.72;64.76;101229.50;5061650;28;20025;-28
2022/08/24 04:55:47;;;;;;;4.80;4.38;;;;;;;14.70;64.67;101231.31;5070786;28;20095;-27
2022/08/24 04:58:14;;;;;;;4.47;4.10;;;;;;;14.69;64.72;101229.56;5066951;28;20111;-27
2022/08/24 05:00:39;;;;;;;4.97;3.97;;;;;;;14.67;64.82;101223.38;5068679;28;20025;-28
2022/08/24 05:03:05;;;;;;;5.07;4.38;;;;;;;14.68;64.83;101238.44;5067622;28;20089;-28
2022/08/24 05:05:32;;;;;;;6.30;4.35;;;;;;;14.71;64.77;101243.66;5052832;28;20577;-28
2022/08/24 05:07:57;;;;;;;4.15;3.33;;;;;;;14.73;64.75;101244.53;5064980;28;20025;-28
2022/08/24 05:10:23;;;;;;;4.97;4.50;;;;;;;14.69;64.72;101240.19;5065753;28;20025;-28
2022/08/24 05:12:48;;;;;;;4.85;4.30;;;;;;;14.70;64.79;101247.22;5067271;28;20507;-28
2022/08/24 05:15:15;;;;;;;5.07;4.07;;;;;;;14.68;64.98;101249.06;5072453;28;20029;-28
2022/08/24 05:17:41;;;;;;;4.43;4.03;;;;;;;14.71;65.04;101248.13;5065527;28;20307;-28
2022/08/24 05:20:08;;;;;;;4.18;3.85;;;;;;;14.75;64.86;101249.81;5066336;28;20507;-28
2022/08/24 05:22:34;;;;;;;4.85;4.45;;;;;;;14.73;64.73;101252.50;5065306;28;20036;-27
2022/08/24 05:24:59;;;;;;;4.65;4.25;;;;;;;14.74;64.94;101254.25;5068750;28;20020;-28
2022/08/24 05:27:24;;;;;;;4.80;4.20;;;;;;;14.75;65.01;101249.81;5065469;28;20020;-28
2022/08/24 05:29:53;;;;;;;3.95;3.58;;;;;;;14.80;64.85;101253.28;5062458;28;20111;-28
2022/08/24 05:32:18;;;;;;;5.18;4.07;;;;;;;14.82;64.69;101256.81;5068767;28;20107;-28
2022/08/24 05:34:44;;;;;;;4.80;4.40;;;;;;;14.82;64.72;101256.81;5065887;28;20444;-28
2022/08/24 05:37:09;;;;;;;6.55;4.25;;;;;;;14.88;64.88;101255.81;5068865;28;20444;-28
2022/08/24 05:39:34;;;;;;;6.00;3.95;;;;;;;14.88;64.67;101258.47;5066575;28;20473;-28
2022/08/24 05:42:00;;;;;;;4.38;3.97;;;;;;;14.92;65.31;101257.50;5060359;28;20027;-28
2022/08/24 05:44:30;;;;;;;4.43;4.00;;;;;;;14.98;64.68;101261.84;5073654;28;20108;-28
2022/08/24 05:46:57;;;;;;;6.27;4.67;;;;;;;15.04;64.72;101250.22;5072127;28;20024;-28
2022/08/24 05:49:23;;;;;;;4.68;4.28;;;;;;;15.07;64.62;101266.13;5062916;28;20278;-28
2022/08/24 05:51:48;;;;;;;4.82;4.43;;;;;;;15.10;64.69;101263.38;5073167;28;20032;-28
2022/08/24 05:54:14;;;;;;;4.30;3.90;;;;;;;15.12;64.67;101264.25;5072507;28;20035;-28
2022/08/24 05:56:39;;;;;;;4.75;4.35;;;;;;;15.13;64.73;101261.56;5063874;28;20495;-28
2022/08/24 05:59:04;;;;;;;4.70;4.10;;;;;;;15.17;64.82;101267.69;5066365;28;20043;-28
2022/08/24 06:01:30;;;;;;;5.68;4.72;;;;;;;15.18;65.46;101269.44;5063528;28;20056;-28
2022/08/24 06:03:56;;;;;;;5.63;4.45;;;;;;;15.24;65.24;101271.13;5062424;28;20020;-28
2022/08/24 06:06:22;;;;;;;4.55;4.15;;;;;;;15.29;65.02;101271.00;5064590;28;20044;-28
2022/08/24 06:08:49;;;;;;;4.45;4.05;;;;;;;15.32;64.96;101271.84;5064943;28;20107;-28
2022/08/24 06:11:23;;;;;;;4.80;4.40;;;;;;;15.36;64.14;101262.00;5056977;28;20036;-28
2022/08/24 06:13:49;;;;;;;5.30;4.60;;;;;;;15.40;64.11;101269.00;5056193;28;20476;-28
2022/08/24 06:16:14;;;;;;;5.68;4.15;;;;;;;15.45;63.89;101261.84;5069088;28;20040;-28
2022/08/24 06:18:39;;;;;;;4.72;4.18;;;;;;;15.52;63.67;101255.50;5067165;28;20026;-26
2022/08/24 06:21:07;;;;;;;4.50;4.10;;;;;;;15.58;63.40;101262.47;5063250;28;20020;-28
2022/08/24 06:23:33;;;;;;;4.20;3.88;;;;;;;15.68;63.35;101263.16;5062254;28;20046;-27
2022/08/24 06:28:43;;;;;;;5.57;5.07;;;;;;;15.84;63.23;101263.69;5061092;28;20540;-28
2022/08/24 06:31:08;;;;;;;5.13;4.57;;;;;;;15.90;63.63;101267.97;5071209;28;20032;-27
2022/08/24 06:33:33;;;;;;;5.28;4.30;;;;;;;15.96;63.52;101269.66;5065291;28;20481;-28
2022/08/24 06:35:59;;;;;;;8.02;5.97;;;;;;;16.00;63.79;101269.56;5063739;28;20095;-28
2022/08/24 06:38:25;;;;;;;5.53;4.75;;;;;;;16.07;64.03;101269.44;5062612;28;20089;-28
2022/08/24 06:40:50;;;;;;;5.38;4.88;;;;;;;16.13;63.78;101270.19;5067879;28;20028;-28
2022/08/24 06:43:15;;;;;;;5.30;4.80;;;;;;;16.20;63.81;101265.56;5064415;28;20757;-28
2022/08/24 06:45:41;;;;;;;6.38;5.10;;;;;;;16.27;63.82;101266.31;5064843;28;20032;-28
2022/08/24 06:48:07;;;;;;;5.93;5.43;;;;;;;16.34;63.77;101265.25;5067481;28;20373;-27
2022/08/24 06:50:32;;;;;;;6.00;5.00;;;;;;;16.44;63.42;101263.22;5064499;28;20036;-28
2022/08/24 06:52:59;;;;;;;5.78;5.28;;;;;;;16.51;63.17;101271.97;5067131;28;20036;-27
2022/08/24 06:55:25;;;;;;;4.97;4.57;;;;;;;16.60;63.18;101273.53;5066700;28;20555;-28
2022/08/24 06:57:50;;;;;;;5.75;4.75;;;;;;;16.69;63.23;101270.63;5063802;28;20116;-27
2022/08/24 07:00:16;;;;;;;5.75;4.93;;;;;;;16.77;63.03;101270.41;5061830;28;20028;-28
2022/08/24 07:02:41;;;;;;;6.28;5.68;;;;;;;16.86;63.71;101274.63;5069566;28;20035;-28
2022/08/24 07:05:07;;;;;;;6.60;5.82;;;;;;;16.95;62.98;101277.09;5065842;28;20028;-28
2022/08/24 07:07:32;;;;;;;7.25;5.63;;;;;;;17.05;63.20;101283.94;5061911;28;20476;-28
2022/08/24 07:09:59;;;;;;;6.03;5.43;;;;;;;17.15;62.97;101281.03;5047467;28;20120;-27
2022/08/24 07:12:25;;;;;;;8.10;6.70;;;;;;;17.25;62.82;101279.88;5067894;28;20107;-27
2022/08/24 07:14:51;;;;;;;8.90;6.93;;;;;;;17.39;63.53;101286.59;5065627;28;20108;-28
2022/08/24 07:17:17;;;;;;;9.10;6.28;;;;;;;17.53;63.03;101287.09;5064962;28;20024;-28
2022/08/24 07:19:44;;;;;;;7.43;6.00;;;;;;;17.65;63.20;101280.53;5064195;28;20051;-28
2022/08/24 07:22:10;;;;;;;7.00;6.30;;;;;;;17.81;62.94;101280.06;5063258;28;20477;-28
2022/08/24 07:24:36;;;;;;;7.43;6.22;;;;;;;17.96;62.84;101281.41;5061730;28;20234;-28
2022/08/24 07:27:02;;;;;;;7.03;6.32;;;;;;;18.07;63.41;101276.59;5057604;28;20083;-28
2022/08/24 07:29:27;;;;;;;9.50;7.30;;;;;;;18.24;64.27;101282.38;5059103;28;20024;-28
2022/08/24 07:31:52;;;;;;;7.53;6.75;;;;;;;18.39;62.89;101275.66;5061977;28;20123;-28
2022/08/24 07:34:18;;;;;;;7.07;6.45;;;;;;;18.54;62.86;101284.97;5062933;28;20047;-28
2022/08/24 07:36:44;;;;;;;8.73;7.03;;;;;;;18.65;63.12;101274.81;5063428;28;20032;-28
2022/08/24 07:39:09;;;;;;;9.27;7.07;;;;;;;18.80;63.03;101276.06;5064498;28;20438;-28
2022/08/24 07:41:40;;;;;;;7.95;6.68;;;;;;;18.95;62.56;101281.81;5061191;28;20383;-28
2022/08/24 07:44:05;;;;;;;7.32;6.60;;;;;;;19.10;62.55;101273.28;5060010;28;20032;-28
2022/08/24 07:46:31;;;;;;;8.45;7.32;;;;;;;19.28;63.17;101276.25;5062852;28;20115;-28
2022/08/24 07:48:56;;;;;;;7.97;7.18;;;;;;;19.43;62.57;101271.25;5066167;28;20028;-28
2022/08/24 07:51:22;;;;;;;7.63;6.82;;;;;;;19.60;62.40;101276.84;5055570;28;20109;-28
2022/08/24 07:53:47;;;;;;;9.88;6.82;;;;;;;19.76;62.48;101281.63;5066142;28;20025;-28
2022/08/24 07:56:13;;;;;;;9.10;6.45;;;;;;;19.95;62.34;101272.88;5059601;28;20029;-28
2022/08/24 07:58:38;;;;;;;7.80;6.03;;;;;;;20.10;62.25;101276.78;5063612;28;20028;-28
2022/08/24 08:01:04;;;;;;;6.95;6.20;;;;;;;20.27;62.11;101281.44;5064648;28;20480;-28
2022/08/24 08:03:32;;;;;;;7.30;6.60;;;;;;;20.43;62.17;101280.81;5065889;28;20103;-28
2022/08/24 08:06:00;;;;;;;7.18;6.57;;;;;;;20.59;62.72;101275.72;5059678;28;20120;-28
2022/08/24 08:08:26;;;;;;;6.75;6.13;;;;;;;20.72;63.29;101276.97;5060620;28;20499;-28
2022/08/24 08:10:52;;;;;;;6.32;5.82;;;;;;;20.88;62.00;101277.19;5066127;28;20119;-28
2022/08/24 08:13:17;;;;;;;6.35;5.75;;;;;;;21.05;63.04;101289.00;5071193;28;20085;-28
2022/08/24 08:15:43;;;;;;;6.65;6.05;;;;;;;21.15;61.98;101284.94;5069071;28;20036;-28
2022/08/24 08:18:09;;;;;;;6.50;5.90;;;;;;;21.30;62.53;101284.38;5068910;28;20021;-28
2022/08/24 08:20:37;;;;;;;6.40;5.78;;;;;;;21.50;62.21;101286.13;5072508;28;20783;-28
2022/08/24 08:25:48;;;;;;;6.63;6.00;;;;;;;21.84;61.42;101281.06;5065087;28;20261;-28
2022/08/24 08:28:14;;;;;;;7.78;7.07;;;;;;;21.99;62.01;101282.13;5063137;28;20028;-28
2022/08/24 08:30:40;;;;;;;6.47;5.85;;;;;;;22.03;62.45;101281.91;5066689;28;20035;-28
2022/08/24 08:33:06;;;;;;;6.03;5.28;;;;;;;22.20;61.21;101279.38;5061235;28;20132;-28
2022/08/24 08:35:32;;;;;;;6.93;6.32;;;;;;;22.41;61.42;101280.97;5061984;28;20028;-28
2022/08/24 08:37:58;;;;;;;6.50;5.90;;;;;;;22.50;61.48;101276.09;5065893;28;20060;-28
2022/08/24 08:40:44;;;;;;;6.20;5.60;;;;;;;22.66;60.93;101276.22;5061560;28;20555;-28
2022/08/24 08:43:27;;;;;;;6.45;5.85;;;;;;;22.83;61.50;101275.34;5023573;28;20493;-26
2022/08/24 08:46:25;;;;;;;6.53;5.93;;;;;;;23.00;60.96;101276.28;5067836;28;20039;-28
2022/08/24 08:49:22;;;;;;;5.95;5.45;;;;;;;23.26;61.00;101277.63;5062620;28;20047;-28
2022/08/24 08:52:02;;;;;;;8.02;5.38;;;;;;;23.54;60.62;101275.31;5045175;28;20036;-27
2022/08/24 08:54:52;;;;;;;6.00;5.40;;;;;;;23.60;59.32;101280.31;5049312;28;20029;-28
2022/08/24 08:57:31;;;;;;;6.32;5.72;;;;;;;23.76;59.95;101274.09;5067712;28;20035;-28
2022/08/24 09:00:21;;;;;;;6.90;5.10;;;;;;;23.95;59.79;101280.19;5061102;28;20086;-27
2022/08/24 09:03:06;;;;;;;5.25;4.78;;;;;;;24.15;59.60;101278.25;5063407;28;20028;-28
2022/08/24 09:05:47;;;;;;;5.82;4.75;;;;;;;24.32;59.43;101269.19;5066438;28;20033;-28
2022/08/24 09:08:49;;;;;;;6.38;4.75;;;;;;;24.45;58.20;101272.00;5064841;28;20145;-28
2022/08/24 09:11:42;;;;;;;4.38;4.05;;;;;;;24.57;57.56;101267.72;5064656;28;20488;-28
2022/08/24 09:14:28;;;;;;;4.75;4.38;;;;;;;24.72;57.21;101276.75;5061324;28;20411;-27
2022/08/24 09:17:15;;;;;;;6.03;4.80;;;;;;;24.94;57.89;101275.47;5067999;28;20025;-28
2022/08/24 09:20:11;;;;;;;4.47;4.07;;;;;;;25.09;57.94;101270.97;5068219;28;20040;-28
2022/08/24 09:22:46;;;;;;;4.85;4.45;;;;;;;25.28;58.10;101268.97;5064711;28;20025;-28
2022/08/24 09:25:25;;;;;;;5.05;4.50;;;;;;;25.43;57.55;101265.31;5068395;28;20395;-27
2022/08/24 09:28:14;;;;;;;4.68;4.28;;;;;;;25.62;57.54;101267.75;5063419;28;20012;-28
2022/08/24 09:31:09;;;;;;;5.35;4.82;;;;;;;25.77;56.25;101269.56;5064355;28;20027;-28
2022/08/24 09:34:06;;;;;;;4.88;4.40;;;;;;;25.95;56.07;101275.59;5059926;28;20071;-28
2022/08/24 09:36:52;;;;;;;4.15;3.72;;;;;;;26.07;56.78;101272.06;5063763;28;20033;-28
2022/08/24 09:39:30;;;;;;;5.43;4.03;;;;;;;26.19;56.27;101275.81;5057912;28;20462;-27
2022/08/24 09:42:28;;;;;;;4.68;3.78;;;;;;;26.26;55.75;101274.44;5065427;28;20413;-28
2022/08/24 09:45:19;;;;;;;4.57;4.18;;;;;;;26.31;54.66;101284.97;4998460;28;20123;-28
2022/08/24 09:48:14;;;;;;;4.10;3.80;;;;;;;26.38;55.33;101269.22;5051586;28;20230;-28
2022/08/24 09:51:03;;;;;;;6.05;4.50;;;;;;;26.45;56.20;101265.13;5068790;28;20028;-26
2022/08/24 09:54:09;;;;;;;4.75;4.22;;;;;;;26.52;55.53;101269.16;5056067;28;20715;-27
2022/08/24 09:56:47;;;;;;;5.40;3.63;;;;;;;26.62;55.72;101261.28;4962130;28;20170;-27
2022/08/24 09:59:58;;;;;;;3.95;3.65;;;;;;;26.69;55.73;101250.03;5044824;28;20498;-26
2022/08/24 10:02:51;;;;;;;4.72;4.35;;;;;;;26.83;55.47;101251.78;5016308;28;20067;-28
2022/08/24 10:05:53;;;;;;;4.55;4.13;;;;;;;26.95;55.25;101255.47;5012886;28;20041;-26
2022/08/24 10:08:39;;;;;;;4.93;3.75;;;;;;;27.01;53.65;101250.53;5044685;28;20056;-27
2022/08/24 10:11:39;;;;;;;5.60;4.00;;;;;;;27.13;53.35;101256.03;5049483;28;20027;-28
2022/08/24 10:14:58;;;;;;;4.53;3.72;;;;;;;27.28;53.44;101249.53;5051246;28;20169;-26
2022/08/24 10:17:33;;;;;;;3.10;2.90;;;;;;;27.45;53.27;101250.19;5054681;28;20689;-27
2022/08/24 10:20:22;;;;;;;3.58;3.28;;;;;;;27.56;53.16;101245.81;5053709;28;20025;-27
2022/08/24 10:23:25;;;;;;;4.38;3.75;;;;;;;27.64;52.69;101252.44;5047867;28;20510;-28
2022/08/24 10:26:02;;;;;;;3.63;3.33;;;;;;;27.79;52.79;101244.19;5051095;28;20032;-27
2022/08/24 10:28:30;;;;;;;3.63;3.42;;;;;;;27.92;52.48;101234.16;5059851;28;20080;-27
2022/08/24 10:31:11;;;;;;;3.78;3.28;;;;;;;28.08;52.23;101240.28;5062173;28;20031;-27
2022/08/24 10:34:02;;;;;;;5.45;3.15;;;;;;;28.20;52.76;101242.06;5054598;28;20063;-27
2022/08/24 10:36:49;;;;;;;3.25;2.95;;;;;;;28.30;52.50;101232.28;5017111;28;21701;-27
2022/08/24 10:39:50;;;;;;;4.55;2.97;;;;;;;28.37;52.71;101229.97;5045992;28;20039;-27
2022/08/24 10:45:27;;;;;;;4.88;3.00;;;;;;;28.56;51.62;101226.72;5053350;28;20582;-27
2022/08/24 10:48:08;;;;;;;3.55;3.03;;;;;;;28.71;51.03;101239.19;5050543;28;20496;-27
2022/08/24 10:50:53;;;;;;;5.53;3.28;;;;;;;28.78;50.67;101233.16;5051174;28;20044;-25
2022/08/24 10:53:21;;;;;;;4.50;2.72;;;;;;;28.87;50.27;101222.59;5047550;28;20039;-27
2022/08/24 10:55:55;;;;;;;4.07;3.13;;;;;;;28.94;50.46;101224.72;5050970;28;20021;-26
2022/08/24 10:58:39;;;;;;;3.25;2.95;;;;;;;29.07;49.91;101227.31;5047579;28;20507;-27
2022/08/24 11:01:28;;;;;;;3.20;2.92;;;;;;;29.17;49.92;101224.72;5051934;28;20480;-27
2022/08/24 11:04:01;;;;;;;3.40;3.05;;;;;;;29.29;48.98;101228.31;5055218;28;20063;-25
2022/08/24 11:06:41;;;;;;;2.95;2.70;;;;;;;29.35;49.22;101231.53;5047400;28;21506;-27
2022/08/24 11:09:11;;;;;;;2.95;2.75;;;;;;;29.40;48.85;101234.72;5044234;28;20122;-27
2022/08/24 11:11:38;;;;;;;;;;;;;;;29.39;47.83;101233.88;5052214;28;20480;-26
2022/08/24 11:14:15;;;;;;;3.53;2.80;;;;;;;29.45;47.85;101235.22;5046828;28;19912;-27
2022/08/24 11:16:44;;;;;;;6.07;2.78;;;;;;;29.56;48.04;101240.69;5048015;28;20028;-27
2022/08/24 11:19:12;;;;;;;4.25;2.78;;;;;;;29.58;46.81;101230.53;5052034;28;20028;-25
2022/08/24 11:21:50;;;;;;;3.05;2.55;;;;;;;29.65;47.59;101232.75;5047563;28;20085;-27
2022/08/24 11:24:22;;;;;;;3.45;2.50;;;;;;;29.71;47.11;101232.28;5045080;28;20491;-27
2022/08/24 11:27:04;;;;;;;5.30;2.50;;;;;;;29.75;47.52;101224.72;5049779;28;20035;-26
2022/08/24 11:30:13;;;;;;;2.70;2.50;;;;;;;29.80;47.13;101214.31;5045345;28;20024;-25
2022/08/24 11:32:43;;;;;;;2.90;2.60;;;;;;;29.89;46.07;101223.56;4986268;28;20072;-27
2022/08/24 11:35:20;;;;;;;3.83;2.55;;;;;;;29.94;45.34;101215.91;5045301;28;20051;-27
2022/08/24 11:37:46;;;;;;;3.05;2.42;;;;;;;30.02;45.99;101209.81;5051696;28;20194;-27
2022/08/24 11:40:12;;;;;;;3.05;2.85;;;;;;;30.12;45.77;101209.91;5045310;28;20028;-25
2022/08/24 11:42:47;;;;;;;2.83;2.50;;;;;;;30.16;45.89;101217.69;5049582;28;20052;-25
2022/08/24 11:45:39;;;;;;;3.35;2.67;;;;;;;30.20;45.24;101212.84;5049524;28;20035;-27
2022/08/24 11:48:34;;;;;;;2.45;2.25;;;;;;;30.26;45.44;101201.47;5038891;28;20041;-27
2022/08/24 11:51:06;;;;;;;3.03;2.83;;;;;;;30.34;45.08;101207.09;5034287;28;20040;-27
2022/08/24 11:53:50;;;;;;;3.42;2.80;;;;;;;30.41;45.32;101204.72;5047754;28;20142;-27